sensor_id;sensor_type;location;lat;lon;timestamp;P1;durP1;ratioP1;P2;durP2;ratioP2
54428;SDS011;40337;52.978;6.310;2024-01-30T00:01:41;23.58;;;20.52;;
54428;SDS011;40337;52.978;6.310;2024-01-30T00:04:07;22.52;;;20.15;;
54428;SDS011;40337;52.978;6.310;2024-01-30T00:06:32;22.98;;;20.58;;
54428;SDS011;40337;52.978;6.310;2024-01-30T00:08:58;22.75;;;20.23;;
54428;SDS011;40337;52.978;6.310;2024-01-30T00:11:24;22.92;;;20.42;;
54428;SDS011;40337;52.978;6.310;2024-01-30T00:13:53;22.42;;;20.02;;
54428;SDS011;40337;52.978;6.310;2024-01-30T00:16:21;21.48;;;18.75;;
54428;SDS011;40337;52.978;6.310;2024-01-30T00:21:27;22.67;;;20.30;;
54428;SDS011;40337;52.978;6.310;2024-01-30T00:23:52;24.25;;;19.90;;
54428;SDS011;40337;52.978;6.310;2024-01-30T00:26:18;21.20;;;18.90;;
54428;SDS011;40337;52.978;6.310;2024-01-30T00:28:44;20.98;;;18.77;;
54428;SDS011;40337;52.978;6.310;2024-01-30T00:31:09;21.85;;;19.50;;
54428;SDS011;40337;52.978;6.310;2024-01-30T00:33:38;21.00;;;18.80;;
54428;SDS011;40337;52.978;6.310;2024-01-30T00:36:08;23.13;;;20.55;;
54428;SDS011;40337;52.978;6.310;2024-01-30T00:38:34;23.45;;;21.00;;
54428;SDS011;40337;52.978;6.310;2024-01-30T00:41:00;22.42;;;20.02;;
54428;SDS011;40337;52.978;6.310;2024-01-30T00:43:29;22.67;;;19.25;;
54428;SDS011;40337;52.978;6.310;2024-01-30T00:45:56;22.38;;;19.92;;
54428;SDS011;40337;52.978;6.310;2024-01-30T00:48:23;24.80;;;21.75;;
54428;SDS011;40337;52.978;6.310;2024-01-30T00:50:48;22.05;;;19.75;;
54428;SDS011;40337;52.978;6.310;2024-01-30T00:53:14;23.30;;;20.58;;
54428;SDS011;40337;52.978;6.310;2024-01-30T00:55:39;22.13;;;19.73;;
54428;SDS011;40337;52.978;6.310;2024-01-30T00:58:05;23.52;;;19.90;;
54428;SDS011;40337;52.978;6.310;2024-01-30T01:00:31;20.98;;;18.77;;
54428;SDS011;40337;52.978;6.310;2024-01-30T01:03:00;22.13;;;19.95;;
54428;SDS011;40337;52.978;6.310;2024-01-30T01:05:26;23.40;;;20.50;;
54428;SDS011;40337;52.978;6.310;2024-01-30T01:07:52;24.63;;;22.00;;
54428;SDS011;40337;52.978;6.310;2024-01-30T01:10:18;23.55;;;20.92;;
54428;SDS011;40337;52.978;6.310;2024-01-30T01:12:44;25.48;;;22.45;;
54428;SDS011;40337;52.978;6.310;2024-01-30T01:15:11;25.58;;;21.83;;
54428;SDS011;40337;52.978;6.310;2024-01-30T01:17:37;23.73;;;21.13;;
54428;SDS011;40337;52.978;6.310;2024-01-30T01:20:03;22.15;;;19.75;;
54428;SDS011;40337;52.978;6.310;2024-01-30T01:22:31;24.20;;;21.55;;
54428;SDS011;40337;52.978;6.310;2024-01-30T01:24:57;24.75;;;21.90;;
54428;SDS011;40337;52.978;6.310;2024-01-30T01:27:24;24.80;;;22.08;;
54428;SDS011;40337;52.978;6.310;2024-01-30T01:29:50;25.33;;;22.23;;
54428;SDS011;40337;52.978;6.310;2024-01-30T01:32:15;24.83;;;21.88;;
54428;SDS011;40337;52.978;6.310;2024-01-30T01:34:41;27.08;;;22.10;;
54428;SDS011;40337;52.978;6.310;2024-01-30T01:37:07;26.10;;;21.80;;
54428;SDS011;40337;52.978;6.310;2024-01-30T01:39:33;26.65;;;23.05;;
54428;SDS011;40337;52.978;6.310;2024-01-30T01:41:58;25.98;;;23.15;;
54428;SDS011;40337;52.978;6.310;2024-01-30T01:44:24;27.73;;;23.10;;
54428;SDS011;40337;52.978;6.310;2024-01-30T01:46:50;27.60;;;23.83;;
54428;SDS011;40337;52.978;6.310;2024-01-30T01:49:17;26.23;;;23.42;;
54428;SDS011;40337;52.978;6.310;2024-01-30T01:51:52;25.38;;;22.77;;
54428;SDS011;40337;52.978;6.310;2024-01-30T01:54:21;25.20;;;22.50;;
54428;SDS011;40337;52.978;6.310;2024-01-30T01:56:48;24.05;;;21.55;;
54428;SDS011;40337;52.978;6.310;2024-01-30T01:59:14;24.05;;;21.52;;
54428;SDS011;40337;52.978;6.310;2024-01-30T02:01:41;23.95;;;21.40;;
54428;SDS011;40337;52.978;6.310;2024-01-30T02:04:07;27.10;;;22.42;;
54428;SDS011;40337;52.978;6.310;2024-01-30T02:09:20;24.20;;;20.83;;
54428;SDS011;40337;52.978;6.310;2024-01-30T02:11:46;25.52;;;21.85;;
54428;SDS011;40337;52.978;6.310;2024-01-30T02:14:11;24.75;;;21.48;;
54428;SDS011;40337;52.978;6.310;2024-01-30T02:16:37;24.40;;;21.10;;
54428;SDS011;40337;52.978;6.310;2024-01-30T02:19:02;25.27;;;22.40;;
54428;SDS011;40337;52.978;6.310;2024-01-30T02:21:28;25.90;;;23.05;;
54428;SDS011;40337;52.978;6.310;2024-01-30T02:23:54;25.55;;;22.85;;
54428;SDS011;40337;52.978;6.310;2024-01-30T02:26:23;25.67;;;21.02;;
54428;SDS011;40337;52.978;6.310;2024-01-30T02:28:49;25.10;;;21.92;;
54428;SDS011;40337;52.978;6.310;2024-01-30T02:31:14;24.27;;;21.63;;
54428;SDS011;40337;52.978;6.310;2024-01-30T02:33:40;25.88;;;22.02;;
54428;SDS011;40337;52.978;6.310;2024-01-30T02:36:05;24.05;;;21.55;;
54428;SDS011;40337;52.978;6.310;2024-01-30T02:38:31;23.38;;;19.65;;
54428;SDS011;40337;52.978;6.310;2024-01-30T02:40:57;22.50;;;19.65;;
54428;SDS011;40337;52.978;6.310;2024-01-30T02:43:22;22.90;;;20.02;;
54428;SDS011;40337;52.978;6.310;2024-01-30T02:45:48;24.40;;;21.20;;
54428;SDS011;40337;52.978;6.310;2024-01-30T02:48:14;23.88;;;21.35;;
54428;SDS011;40337;52.978;6.310;2024-01-30T02:50:39;24.33;;;21.17;;
54428;SDS011;40337;52.978;6.310;2024-01-30T02:53:05;26.90;;;22.10;;
54428;SDS011;40337;52.978;6.310;2024-01-30T02:55:30;26.85;;;22.50;;
54428;SDS011;40337;52.978;6.310;2024-01-30T02:57:56;26.15;;;21.83;;
54428;SDS011;40337;52.978;6.310;2024-01-30T03:00:22;25.20;;;22.50;;
54428;SDS011;40337;52.978;6.310;2024-01-30T03:02:48;24.27;;;21.67;;
54428;SDS011;40337;52.978;6.310;2024-01-30T03:05:14;24.90;;;22.10;;
54428;SDS011;40337;52.978;6.310;2024-01-30T03:07:40;25.13;;;21.60;;
54428;SDS011;40337;52.978;6.310;2024-01-30T03:10:05;27.65;;;21.95;;
54428;SDS011;40337;52.978;6.310;2024-01-30T03:12:31;24.25;;;21.23;;
54428;SDS011;40337;52.978;6.310;2024-01-30T03:14:57;24.75;;;22.13;;
54428;SDS011;40337;52.978;6.310;2024-01-30T03:17:23;26.10;;;22.73;;
54428;SDS011;40337;52.978;6.310;2024-01-30T03:19:49;26.77;;;23.15;;
54428;SDS011;40337;52.978;6.310;2024-01-30T03:22:15;26.38;;;22.17;;
54428;SDS011;40337;52.978;6.310;2024-01-30T03:24:41;26.05;;;22.45;;
54428;SDS011;40337;52.978;6.310;2024-01-30T03:27:06;26.30;;;22.35;;
54428;SDS011;40337;52.978;6.310;2024-01-30T03:29:32;27.55;;;23.33;;
54428;SDS011;40337;52.978;6.310;2024-01-30T03:32:17;23.08;;;20.58;;
54428;SDS011;40337;52.978;6.310;2024-01-30T03:34:42;23.83;;;20.50;;
54428;SDS011;40337;52.978;6.310;2024-01-30T03:37:08;23.58;;;20.98;;
54428;SDS011;40337;52.978;6.310;2024-01-30T03:39:34;24.38;;;21.55;;
54428;SDS011;40337;52.978;6.310;2024-01-30T03:42:00;24.20;;;21.60;;
54428;SDS011;40337;52.978;6.310;2024-01-30T03:44:25;24.60;;;21.33;;
54428;SDS011;40337;52.978;6.310;2024-01-30T03:46:51;24.30;;;20.30;;
54428;SDS011;40337;52.978;6.310;2024-01-30T03:49:35;24.02;;;21.42;;
54428;SDS011;40337;52.978;6.310;2024-01-30T03:52:00;24.00;;;20.40;;
54428;SDS011;40337;52.978;6.310;2024-01-30T03:54:26;23.15;;;20.73;;
54428;SDS011;40337;52.978;6.310;2024-01-30T03:56:51;23.63;;;21.13;;
54428;SDS011;40337;52.978;6.310;2024-01-30T03:59:17;25.00;;;21.88;;
54428;SDS011;40337;52.978;6.310;2024-01-30T04:01:47;23.23;;;20.70;;
54428;SDS011;40337;52.978;6.310;2024-01-30T04:04:12;23.50;;;21.00;;
54428;SDS011;40337;52.978;6.310;2024-01-30T04:06:38;23.55;;;20.65;;
54428;SDS011;40337;52.978;6.310;2024-01-30T04:09:04;22.83;;;20.35;;
54428;SDS011;40337;52.978;6.310;2024-01-30T04:11:29;24.92;;;21.45;;
54428;SDS011;40337;52.978;6.310;2024-01-30T04:13:55;22.65;;;19.35;;
54428;SDS011;40337;52.978;6.310;2024-01-30T04:16:21;22.08;;;19.45;;
54428;SDS011;40337;52.978;6.310;2024-01-30T04:18:47;21.25;;;18.92;;
54428;SDS011;40337;52.978;6.310;2024-01-30T04:21:13;22.73;;;19.65;;
54428;SDS011;40337;52.978;6.310;2024-01-30T04:23:40;22.40;;;19.50;;
54428;SDS011;40337;52.978;6.310;2024-01-30T04:26:06;20.33;;;18.08;;
54428;SDS011;40337;52.978;6.310;2024-01-30T04:28:32;20.35;;;18.27;;
54428;SDS011;40337;52.978;6.310;2024-01-30T04:30:57;20.77;;;17.77;;
54428;SDS011;40337;52.978;6.310;2024-01-30T04:33:23;22.00;;;18.10;;
54428;SDS011;40337;52.978;6.310;2024-01-30T04:35:49;20.58;;;18.17;;
54428;SDS011;40337;52.978;6.310;2024-01-30T04:38:14;22.15;;;17.95;;
54428;SDS011;40337;52.978;6.310;2024-01-30T04:40:40;19.55;;;17.45;;
54428;SDS011;40337;52.978;6.310;2024-01-30T04:43:06;20.90;;;17.50;;
54428;SDS011;40337;52.978;6.310;2024-01-30T04:45:31;19.13;;;17.13;;
54428;SDS011;40337;52.978;6.310;2024-01-30T04:47:57;19.33;;;17.42;;
54428;SDS011;40337;52.978;6.310;2024-01-30T04:50:23;19.65;;;17.45;;
54428;SDS011;40337;52.978;6.310;2024-01-30T04:52:48;19.40;;;17.30;;
54428;SDS011;40337;52.978;6.310;2024-01-30T04:55:14;19.98;;;17.83;;
54428;SDS011;40337;52.978;6.310;2024-01-30T04:57:40;21.77;;;17.95;;
54428;SDS011;40337;52.978;6.310;2024-01-30T05:00:06;19.70;;;17.45;;
54428;SDS011;40337;52.978;6.310;2024-01-30T05:02:32;19.55;;;17.45;;
54428;SDS011;40337;52.978;6.310;2024-01-30T05:04:58;18.40;;;16.50;;
54428;SDS011;40337;52.978;6.310;2024-01-30T05:07:24;18.90;;;16.88;;
54428;SDS011;40337;52.978;6.310;2024-01-30T05:09:50;21.02;;;17.55;;
54428;SDS011;40337;52.978;6.310;2024-01-30T05:12:16;22.27;;;17.23;;
54428;SDS011;40337;52.978;6.310;2024-01-30T05:14:41;19.95;;;16.77;;
54428;SDS011;40337;52.978;6.310;2024-01-30T05:17:07;19.17;;;16.95;;
54428;SDS011;40337;52.978;6.310;2024-01-30T05:19:35;19.20;;;17.20;;
54428;SDS011;40337;52.978;6.310;2024-01-30T05:22:00;19.20;;;16.88;;
54428;SDS011;40337;52.978;6.310;2024-01-30T05:24:26;19.38;;;16.38;;
54428;SDS011;40337;52.978;6.310;2024-01-30T05:26:52;21.30;;;17.08;;
54428;SDS011;40337;52.978;6.310;2024-01-30T05:29:17;17.70;;;15.85;;
54428;SDS011;40337;52.978;6.310;2024-01-30T05:31:43;18.60;;;16.52;;
54428;SDS011;40337;52.978;6.310;2024-01-30T05:34:09;19.13;;;17.13;;
54428;SDS011;40337;52.978;6.310;2024-01-30T05:36:34;18.83;;;16.45;;
54428;SDS011;40337;52.978;6.310;2024-01-30T05:39:00;18.58;;;15.63;;
54428;SDS011;40337;52.978;6.310;2024-01-30T05:41:26;19.80;;;16.35;;
54428;SDS011;40337;52.978;6.310;2024-01-30T05:43:55;17.77;;;15.95;;
54428;SDS011;40337;52.978;6.310;2024-01-30T05:46:21;18.15;;;15.93;;
54428;SDS011;40337;52.978;6.310;2024-01-30T05:48:47;18.95;;;16.80;;
54428;SDS011;40337;52.978;6.310;2024-01-30T05:51:12;17.55;;;15.70;;
54428;SDS011;40337;52.978;6.310;2024-01-30T05:53:38;19.45;;;16.40;;
54428;SDS011;40337;52.978;6.310;2024-01-30T05:56:05;17.35;;;15.02;;
54428;SDS011;40337;52.978;6.310;2024-01-30T05:58:50;16.92;;;15.02;;
54428;SDS011;40337;52.978;6.310;2024-01-30T06:01:16;19.50;;;16.27;;
54428;SDS011;40337;52.978;6.310;2024-01-30T06:03:41;16.77;;;14.98;;
54428;SDS011;40337;52.978;6.310;2024-01-30T06:06:08;17.63;;;15.82;;
54428;SDS011;40337;52.978;6.310;2024-01-30T06:08:34;17.75;;;15.82;;
54428;SDS011;40337;52.978;6.310;2024-01-30T06:11:00;17.10;;;15.38;;
54428;SDS011;40337;52.978;6.310;2024-01-30T06:13:26;18.40;;;15.98;;
54428;SDS011;40337;52.978;6.310;2024-01-30T06:15:52;18.15;;;15.30;;
54428;SDS011;40337;52.978;6.310;2024-01-30T06:18:17;17.25;;;15.45;;
54428;SDS011;40337;52.978;6.310;2024-01-30T06:20:43;17.38;;;15.57;;
54428;SDS011;40337;52.978;6.310;2024-01-30T06:23:09;16.63;;;14.57;;
54428;SDS011;40337;52.978;6.310;2024-01-30T06:25:35;16.80;;;14.80;;
54428;SDS011;40337;52.978;6.310;2024-01-30T06:28:00;18.25;;;15.27;;
54428;SDS011;40337;52.978;6.310;2024-01-30T06:30:26;17.45;;;15.52;;
54428;SDS011;40337;52.978;6.310;2024-01-30T06:32:52;16.73;;;14.93;;
54428;SDS011;40337;52.978;6.310;2024-01-30T06:35:17;17.20;;;15.35;;
54428;SDS011;40337;52.978;6.310;2024-01-30T06:37:43;16.08;;;14.15;;
54428;SDS011;40337;52.978;6.310;2024-01-30T06:40:09;17.80;;;14.82;;
54428;SDS011;40337;52.978;6.310;2024-01-30T06:42:35;15.95;;;14.25;;
54428;SDS011;40337;52.978;6.310;2024-01-30T06:45:00;17.48;;;14.35;;
54428;SDS011;40337;52.978;6.310;2024-01-30T06:47:26;16.38;;;14.43;;
54428;SDS011;40337;52.978;6.310;2024-01-30T06:49:52;16.17;;;14.45;;
54428;SDS011;40337;52.978;6.310;2024-01-30T06:52:17;16.58;;;14.70;;
54428;SDS011;40337;52.978;6.310;2024-01-30T06:54:43;16.63;;;13.95;;
54428;SDS011;40337;52.978;6.310;2024-01-30T06:57:09;17.98;;;13.95;;
54428;SDS011;40337;52.978;6.310;2024-01-30T07:02:21;15.03;;;13.20;;
54428;SDS011;40337;52.978;6.310;2024-01-30T07:04:47;15.95;;;13.68;;
54428;SDS011;40337;52.978;6.310;2024-01-30T07:07:12;15.85;;;13.50;;
54428;SDS011;40337;52.978;6.310;2024-01-30T07:09:40;15.27;;;13.70;;
54428;SDS011;40337;52.978;6.310;2024-01-30T07:12:06;15.43;;;13.52;;
54428;SDS011;40337;52.978;6.310;2024-01-30T07:14:32;17.30;;;14.27;;
54428;SDS011;40337;52.978;6.310;2024-01-30T07:16:58;16.02;;;14.00;;
54428;SDS011;40337;52.978;6.310;2024-01-30T07:19:23;15.77;;;14.10;;
54428;SDS011;40337;52.978;6.310;2024-01-30T07:21:49;17.52;;;14.40;;
54428;SDS011;40337;52.978;6.310;2024-01-30T07:24:14;15.82;;;14.00;;
54428;SDS011;40337;52.978;6.310;2024-01-30T07:26:40;17.08;;;14.35;;
54428;SDS011;40337;52.978;6.310;2024-01-30T07:29:06;15.50;;;13.60;;
54428;SDS011;40337;52.978;6.310;2024-01-30T07:31:31;17.48;;;13.73;;
54428;SDS011;40337;52.978;6.310;2024-01-30T07:33:57;15.82;;;12.75;;
54428;SDS011;40337;52.978;6.310;2024-01-30T07:36:23;15.60;;;13.30;;
54428;SDS011;40337;52.978;6.310;2024-01-30T07:38:48;15.38;;;13.55;;
54428;SDS011;40337;52.978;6.310;2024-01-30T07:41:14;18.38;;;13.77;;
54428;SDS011;40337;52.978;6.310;2024-01-30T07:43:39;16.65;;;13.63;;
54428;SDS011;40337;52.978;6.310;2024-01-30T07:46:05;15.43;;;13.13;;
54428;SDS011;40337;52.978;6.310;2024-01-30T07:48:32;17.02;;;13.73;;
54428;SDS011;40337;52.978;6.310;2024-01-30T07:50:59;15.52;;;13.50;;
54428;SDS011;40337;52.978;6.310;2024-01-30T07:53:25;15.50;;;13.90;;
54428;SDS011;40337;52.978;6.310;2024-01-30T07:55:52;15.70;;;14.00;;
54428;SDS011;40337;52.978;6.310;2024-01-30T07:58:17;14.73;;;12.80;;
54428;SDS011;40337;52.978;6.310;2024-01-30T08:00:44;15.43;;;13.18;;
54428;SDS011;40337;52.978;6.310;2024-01-30T08:03:10;14.50;;;12.98;;
54428;SDS011;40337;52.978;6.310;2024-01-30T08:05:35;14.57;;;12.85;;
54428;SDS011;40337;52.978;6.310;2024-01-30T08:08:01;14.82;;;12.90;;
54428;SDS011;40337;52.978;6.310;2024-01-30T08:10:27;17.30;;;13.10;;
54428;SDS011;40337;52.978;6.310;2024-01-30T08:12:52;15.90;;;13.45;;
54428;SDS011;40337;52.978;6.310;2024-01-30T08:15:18;14.95;;;12.27;;
54428;SDS011;40337;52.978;6.310;2024-01-30T08:17:44;14.25;;;12.73;;
54428;SDS011;40337;52.978;6.310;2024-01-30T08:20:10;16.90;;;12.80;;
54428;SDS011;40337;52.978;6.310;2024-01-30T08:22:40;13.32;;;11.45;;
54428;SDS011;40337;52.978;6.310;2024-01-30T08:25:06;14.57;;;11.98;;
54428;SDS011;40337;52.978;6.310;2024-01-30T08:27:32;14.60;;;12.18;;
54428;SDS011;40337;52.978;6.310;2024-01-30T08:30:00;14.60;;;12.02;;
54428;SDS011;40337;52.978;6.310;2024-01-30T08:32:26;16.25;;;12.70;;
54428;SDS011;40337;52.978;6.310;2024-01-30T08:34:52;14.82;;;12.15;;
54428;SDS011;40337;52.978;6.310;2024-01-30T08:37:17;14.63;;;11.85;;
54428;SDS011;40337;52.978;6.310;2024-01-30T08:39:43;15.10;;;11.50;;
54428;SDS011;40337;52.978;6.310;2024-01-30T08:42:09;13.07;;;11.68;;
54428;SDS011;40337;52.978;6.310;2024-01-30T08:44:35;13.88;;;12.38;;
54428;SDS011;40337;52.978;6.310;2024-01-30T08:47:01;15.18;;;11.75;;
54428;SDS011;40337;52.978;6.310;2024-01-30T08:49:26;13.68;;;12.07;;
54428;SDS011;40337;52.978;6.310;2024-01-30T08:51:52;14.95;;;12.10;;
54428;SDS011;40337;52.978;6.310;2024-01-30T08:54:18;13.52;;;11.73;;
54428;SDS011;40337;52.978;6.310;2024-01-30T08:56:44;14.00;;;12.18;;
54428;SDS011;40337;52.978;6.310;2024-01-30T08:59:10;14.85;;;11.90;;
54428;SDS011;40337;52.978;6.310;2024-01-30T09:01:36;14.30;;;11.85;;
54428;SDS011;40337;52.978;6.310;2024-01-30T09:04:02;14.10;;;12.60;;
54428;SDS011;40337;52.978;6.310;2024-01-30T09:06:27;14.65;;;11.93;;
54428;SDS011;40337;52.978;6.310;2024-01-30T09:08:54;14.13;;;12.23;;
54428;SDS011;40337;52.978;6.310;2024-01-30T09:11:20;13.60;;;11.60;;
54428;SDS011;40337;52.978;6.310;2024-01-30T09:13:45;14.90;;;11.95;;
54428;SDS011;40337;52.978;6.310;2024-01-30T09:16:11;16.17;;;11.77;;
54428;SDS011;40337;52.978;6.310;2024-01-30T09:18:36;14.35;;;11.95;;
54428;SDS011;40337;52.978;6.310;2024-01-30T09:21:02;15.02;;;11.82;;
54428;SDS011;40337;52.978;6.310;2024-01-30T09:23:28;14.98;;;11.88;;
54428;SDS011;40337;52.978;6.310;2024-01-30T09:25:53;14.93;;;11.88;;
54428;SDS011;40337;52.978;6.310;2024-01-30T09:28:20;16.00;;;11.65;;
54428;SDS011;40337;52.978;6.310;2024-01-30T09:30:45;14.52;;;12.05;;
54428;SDS011;40337;52.978;6.310;2024-01-30T09:33:11;16.35;;;12.30;;
54428;SDS011;40337;52.978;6.310;2024-01-30T09:35:36;16.00;;;12.20;;
54428;SDS011;40337;52.978;6.310;2024-01-30T09:38:02;15.07;;;12.10;;
54428;SDS011;40337;52.978;6.310;2024-01-30T09:40:28;15.10;;;11.85;;
54428;SDS011;40337;52.978;6.310;2024-01-30T09:42:54;15.73;;;12.02;;
54428;SDS011;40337;52.978;6.310;2024-01-30T09:45:23;16.08;;;12.35;;
54428;SDS011;40337;52.978;6.310;2024-01-30T09:47:50;16.70;;;12.63;;
54428;SDS011;40337;52.978;6.310;2024-01-30T09:50:16;14.43;;;12.00;;
54428;SDS011;40337;52.978;6.310;2024-01-30T09:52:42;14.18;;;12.00;;
54428;SDS011;40337;52.978;6.310;2024-01-30T09:55:11;17.35;;;12.93;;
54428;SDS011;40337;52.978;6.310;2024-01-30T09:57:38;15.90;;;11.65;;
54428;SDS011;40337;52.978;6.310;2024-01-30T10:00:04;13.85;;;11.80;;
54428;SDS011;40337;52.978;6.310;2024-01-30T10:02:34;15.07;;;11.90;;
54428;SDS011;40337;52.978;6.310;2024-01-30T10:05:00;15.85;;;12.30;;
54428;SDS011;40337;52.978;6.310;2024-01-30T10:07:26;14.68;;;11.63;;
54428;SDS011;40337;52.978;6.310;2024-01-30T10:09:52;13.95;;;11.23;;
54428;SDS011;40337;52.978;6.310;2024-01-30T10:12:20;14.75;;;11.35;;
54428;SDS011;40337;52.978;6.310;2024-01-30T10:14:46;16.30;;;11.93;;
54428;SDS011;40337;52.978;6.310;2024-01-30T10:17:12;13.77;;;11.63;;
54428;SDS011;40337;52.978;6.310;2024-01-30T10:19:38;15.27;;;11.73;;
54428;SDS011;40337;52.978;6.310;2024-01-30T10:22:04;14.88;;;11.77;;
54428;SDS011;40337;52.978;6.310;2024-01-30T10:24:31;14.52;;;12.02;;
54428;SDS011;40337;52.978;6.310;2024-01-30T10:26:58;16.90;;;12.63;;
54428;SDS011;40337;52.978;6.310;2024-01-30T10:29:24;17.95;;;12.70;;
54428;SDS011;40337;52.978;6.310;2024-01-30T10:32:02;17.13;;;12.82;;
54428;SDS011;40337;52.978;6.310;2024-01-30T10:34:29;14.40;;;12.55;;
54428;SDS011;40337;52.978;6.310;2024-01-30T10:37:17;16.88;;;13.02;;
54428;SDS011;40337;52.978;6.310;2024-01-30T10:39:43;15.27;;;12.38;;
54428;SDS011;40337;52.978;6.310;2024-01-30T10:42:13;15.57;;;13.18;;
54428;SDS011;40337;52.978;6.310;2024-01-30T10:47:34;18.95;;;13.05;;
54428;SDS011;40337;52.978;6.310;2024-01-30T10:50:03;17.85;;;13.98;;
54428;SDS011;40337;52.978;6.310;2024-01-30T10:52:30;15.52;;;12.65;;
54428;SDS011;40337;52.978;6.310;2024-01-30T10:54:57;18.05;;;13.25;;
54428;SDS011;40337;52.978;6.310;2024-01-30T10:57:25;16.92;;;13.10;;
54428;SDS011;40337;52.978;6.310;2024-01-30T10:59:55;18.63;;;13.20;;
54428;SDS011;40337;52.978;6.310;2024-01-30T11:02:23;20.23;;;13.52;;
54428;SDS011;40337;52.978;6.310;2024-01-30T11:04:54;18.10;;;13.32;;
54428;SDS011;40337;52.978;6.310;2024-01-30T11:07:24;18.33;;;12.30;;
54428;SDS011;40337;52.978;6.310;2024-01-30T11:09:52;19.10;;;13.43;;
54428;SDS011;40337;52.978;6.310;2024-01-30T11:12:28;17.25;;;13.23;;
54428;SDS011;40337;52.978;6.310;2024-01-30T11:15:04;16.27;;;13.15;;
54428;SDS011;40337;52.978;6.310;2024-01-30T11:20:23;16.00;;;13.80;;
54428;SDS011;40337;52.978;6.310;2024-01-30T11:22:53;19.38;;;12.48;;
54428;SDS011;40337;52.978;6.310;2024-01-30T11:25:19;18.10;;;10.40;;
54428;SDS011;40337;52.978;6.310;2024-01-30T11:27:46;20.25;;;8.70;;
54428;SDS011;40337;52.978;6.310;2024-01-30T11:30:25;17.75;;;8.13;;
54428;SDS011;40337;52.978;6.310;2024-01-30T11:35:32;15.65;;;7.25;;
54428;SDS011;40337;52.978;6.310;2024-01-30T11:37:58;14.48;;;6.30;;
54428;SDS011;40337;52.978;6.310;2024-01-30T11:40:29;14.25;;;6.28;;
54428;SDS011;40337;52.978;6.310;2024-01-30T11:42:56;18.17;;;6.75;;
54428;SDS011;40337;52.978;6.310;2024-01-30T11:45:23;12.65;;;5.97;;
54428;SDS011;40337;52.978;6.310;2024-01-30T11:47:48;13.73;;;5.88;;
54428;SDS011;40337;52.978;6.310;2024-01-30T11:50:14;10.23;;;4.82;;
54428;SDS011;40337;52.978;6.310;2024-01-30T11:52:40;11.30;;;4.90;;
54428;SDS011;40337;52.978;6.310;2024-01-30T11:55:08;9.60;;;4.55;;
54428;SDS011;40337;52.978;6.310;2024-01-30T11:57:34;11.93;;;4.78;;
54428;SDS011;40337;52.978;6.310;2024-01-30T12:00:03;11.90;;;4.78;;
54428;SDS011;40337;52.978;6.310;2024-01-30T12:05:40;9.98;;;3.92;;
54428;SDS011;40337;52.978;6.310;2024-01-30T12:08:13;8.15;;;3.53;;
54428;SDS011;40337;52.978;6.310;2024-01-30T12:10:41;9.40;;;3.28;;
54428;SDS011;40337;52.978;6.310;2024-01-30T12:13:06;7.80;;;2.92;;
54428;SDS011;40337;52.978;6.310;2024-01-30T12:15:32;7.28;;;2.85;;
54428;SDS011;40337;52.978;6.310;2024-01-30T12:18:05;6.47;;;2.45;;
54428;SDS011;40337;52.978;6.310;2024-01-30T12:20:31;6.40;;;2.10;;
54428;SDS011;40337;52.978;6.310;2024-01-30T12:22:57;4.38;;;1.75;;
54428;SDS011;40337;52.978;6.310;2024-01-30T12:25:23;5.22;;;1.40;;
54428;SDS011;40337;52.978;6.310;2024-01-30T12:27:49;3.17;;;1.10;;
54428;SDS011;40337;52.978;6.310;2024-01-30T12:30:16;3.60;;;1.20;;
54428;SDS011;40337;52.978;6.310;2024-01-30T12:32:43;4.40;;;1.52;;
54428;SDS011;40337;52.978;6.310;2024-01-30T12:35:10;4.32;;;1.48;;
54428;SDS011;40337;52.978;6.310;2024-01-30T12:37:37;4.95;;;1.70;;
54428;SDS011;40337;52.978;6.310;2024-01-30T12:40:03;5.70;;;1.92;;
54428;SDS011;40337;52.978;6.310;2024-01-30T12:42:31;4.65;;;1.63;;
54428;SDS011;40337;52.978;6.310;2024-01-30T12:44:57;5.78;;;1.70;;
54428;SDS011;40337;52.978;6.310;2024-01-30T12:47:23;4.95;;;1.75;;
54428;SDS011;40337;52.978;6.310;2024-01-30T12:49:49;4.13;;;1.70;;
54428;SDS011;40337;52.978;6.310;2024-01-30T12:52:18;3.65;;;1.40;;
54428;SDS011;40337;52.978;6.310;2024-01-30T12:54:44;5.15;;;1.25;;
54428;SDS011;40337;52.978;6.310;2024-01-30T12:57:10;3.35;;;1.48;;
54428;SDS011;40337;52.978;6.310;2024-01-30T12:59:35;3.60;;;1.30;;
54428;SDS011;40337;52.978;6.310;2024-01-30T13:02:01;2.67;;;1.05;;
54428;SDS011;40337;52.978;6.310;2024-01-30T13:04:28;4.25;;;1.00;;
54428;SDS011;40337;52.978;6.310;2024-01-30T13:06:54;3.63;;;1.17;;
54428;SDS011;40337;52.978;6.310;2024-01-30T13:09:19;2.88;;;1.20;;
54428;SDS011;40337;52.978;6.310;2024-01-30T13:11:45;2.67;;;1.02;;
54428;SDS011;40337;52.978;6.310;2024-01-30T13:14:11;3.97;;;1.38;;
54428;SDS011;40337;52.978;6.310;2024-01-30T13:16:37;3.60;;;1.35;;
54428;SDS011;40337;52.978;6.310;2024-01-30T13:19:03;3.85;;;1.27;;
54428;SDS011;40337;52.978;6.310;2024-01-30T13:21:28;4.97;;;1.45;;
54428;SDS011;40337;52.978;6.310;2024-01-30T13:23:54;2.65;;;1.02;;
54428;SDS011;40337;52.978;6.310;2024-01-30T13:26:20;2.17;;;1.10;;
54428;SDS011;40337;52.978;6.310;2024-01-30T13:28:46;2.85;;;1.20;;
54428;SDS011;40337;52.978;6.310;2024-01-30T13:31:12;4.03;;;1.40;;
54428;SDS011;40337;52.978;6.310;2024-01-30T13:33:39;3.45;;;1.20;;
54428;SDS011;40337;52.978;6.310;2024-01-30T13:36:05;3.67;;;1.30;;
54428;SDS011;40337;52.978;6.310;2024-01-30T13:38:35;3.67;;;1.10;;
54428;SDS011;40337;52.978;6.310;2024-01-30T13:41:00;3.33;;;1.20;;
54428;SDS011;40337;52.978;6.310;2024-01-30T13:43:26;3.58;;;1.20;;
54428;SDS011;40337;52.978;6.310;2024-01-30T13:45:52;4.18;;;1.40;;
54428;SDS011;40337;52.978;6.310;2024-01-30T13:48:18;2.60;;;1.30;;
54428;SDS011;40337;52.978;6.310;2024-01-30T13:50:44;4.10;;;1.40;;
54428;SDS011;40337;52.978;6.310;2024-01-30T13:53:10;4.30;;;1.50;;
54428;SDS011;40337;52.978;6.310;2024-01-30T13:55:35;3.97;;;1.70;;
54428;SDS011;40337;52.978;6.310;2024-01-30T13:58:01;4.45;;;1.80;;
54428;SDS011;40337;52.978;6.310;2024-01-30T14:00:27;4.15;;;1.75;;
54428;SDS011;40337;52.978;6.310;2024-01-30T14:02:53;3.97;;;1.50;;
54428;SDS011;40337;52.978;6.310;2024-01-30T14:05:23;4.30;;;1.60;;
54428;SDS011;40337;52.978;6.310;2024-01-30T14:07:49;5.03;;;2.00;;
54428;SDS011;40337;52.978;6.310;2024-01-30T14:10:16;3.58;;;1.70;;
54428;SDS011;40337;52.978;6.310;2024-01-30T14:12:42;3.55;;;1.80;;
54428;SDS011;40337;52.978;6.310;2024-01-30T14:15:12;5.80;;;2.10;;
54428;SDS011;40337;52.978;6.310;2024-01-30T14:17:39;5.35;;;1.90;;
54428;SDS011;40337;52.978;6.310;2024-01-30T14:20:05;5.20;;;2.40;;
54428;SDS011;40337;52.978;6.310;2024-01-30T14:22:33;6.05;;;2.28;;
54428;SDS011;40337;52.978;6.310;2024-01-30T14:24:59;5.95;;;2.72;;
54428;SDS011;40337;52.978;6.310;2024-01-30T14:27:28;4.63;;;2.40;;
54428;SDS011;40337;52.978;6.310;2024-01-30T14:29:53;5.32;;;2.65;;
54428;SDS011;40337;52.978;6.310;2024-01-30T14:32:19;4.85;;;2.40;;
54428;SDS011;40337;52.978;6.310;2024-01-30T14:34:45;5.68;;;2.75;;
54428;SDS011;40337;52.978;6.310;2024-01-30T14:37:10;5.00;;;2.70;;
54428;SDS011;40337;52.978;6.310;2024-01-30T14:39:36;7.03;;;3.22;;
54428;SDS011;40337;52.978;6.310;2024-01-30T14:42:02;5.93;;;3.03;;